Time;durP1;ratioP1;P1;durP2;ratioP2;P2;SDS_P1;SDS_P2;PMS_P1;PMS_P2;Temp;Humidity;BMP_temperature;BMP_pressure;BME280_temperature;BME280_humidity;BME280_pressure;Samples;Min_cycle;Max_cycle;Signal;HPM_P1;HPM_P2
2022/06/17 00:01:06;;;;;;;;;;;15.60;99.90;;;;;;5086322;27;37514;-57
2022/06/17 00:03:33;;;;;;;;;;;15.60;99.90;;;;;;5085297;27;36254;-56
2022/06/17 00:06:02;;;;;;;;;;;15.60;99.90;;;;;;5089204;27;35032;-56
2022/06/17 00:08:31;;;;;;;;;;;15.60;99.90;;;;;;5090278;27;37961;-56
2022/06/17 00:10:59;;;;;;;;;;;15.60;99.90;;;;;;5089531;27;37278;-56
2022/06/17 00:13:26;;;;;;;;;;;15.40;99.90;;;;;;5089233;27;34829;-56
2022/06/17 00:15:54;;;;;;;;;;;15.40;99.90;;;;;;5089994;27;37229;-56
2022/06/17 00:18:21;;;;;;;;;;;15.30;99.90;;;;;;5089300;28;38206;-56
2022/06/17 00:20:49;;;;;;;;;;;15.40;99.90;;;;;;5089274;27;36050;-56
2022/06/17 00:23:17;;;;;;;;;;;15.30;99.90;;;;;;5089646;27;37288;-56
2022/06/17 00:25:46;;;;;;;;;;;15.30;99.90;;;;;;5088636;27;38278;-56
2022/06/17 00:28:17;;;;;;;;;;;15.30;99.90;;;;;;5089979;28;38168;-56
2022/06/17 00:30:46;;;;;;;;;;;15.30;99.90;;;;;;5090498;27;37413;-56
2022/06/17 00:33:14;;;;;;;;;;;15.30;99.90;;;;;;5090565;27;37259;-56
2022/06/17 00:35:42;;;;;;;;;;;15.40;99.90;;;;;;5089688;27;37766;-56
2022/06/17 00:38:12;;;;;;;;;;;15.40;99.90;;;;;;5088462;27;37673;-56
2022/06/17 00:40:39;;;;;;;;;;;15.40;99.90;;;;;;5089557;27;37377;-56
2022/06/17 00:43:07;;;;;;;;;;;15.40;99.90;;;;;;5089943;27;38112;-56
2022/06/17 00:45:39;;;;;;;;;;;15.30;99.90;;;;;;5089853;27;38121;-56
2022/06/17 00:48:10;;;;;;;;;;;15.30;99.90;;;;;;5087209;28;37903;-56
2022/06/17 00:50:39;;;;;;;;;;;15.30;99.90;;;;;;5088919;27;38204;-56
2022/06/17 00:53:12;;;;;;;;;;;15.30;99.90;;;;;;5086295;27;37632;-56
2022/06/17 00:55:42;;;;;;;;;;;15.30;99.90;;;;;;5087232;27;37699;-56
2022/06/17 00:58:14;;;;;;;;;;;15.30;99.90;;;;;;5088284;27;39443;-56
2022/06/17 01:00:43;;;;;;;;;;;15.20;99.90;;;;;;5088560;27;37039;-55
2022/06/17 01:03:13;;;;;;;;;;;15.10;99.90;;;;;;5089318;27;38225;-56
2022/06/17 01:05:43;;;;;;;;;;;15.00;99.90;;;;;;5089170;27;38322;-55
2022/06/17 01:08:14;;;;;;;;;;;15.00;99.90;;;;;;5089237;27;38394;-55
2022/06/17 01:10:41;;;;;;;;;;;14.90;99.90;;;;;;5088071;27;37918;-56
2022/06/17 01:13:09;;;;;;;;;;;14.90;99.90;;;;;;5088434;27;36228;-56
2022/06/17 01:15:38;;;;;;;;;;;14.90;99.90;;;;;;5088596;27;36515;-56
2022/06/17 01:18:07;;;;;;;;;;;14.90;99.90;;;;;;5087790;27;37704;-56
2022/06/17 01:20:34;;;;;;;;;;;14.90;99.90;;;;;;5088321;27;38532;-56
2022/06/17 01:23:05;;;;;;;;;;;14.90;99.90;;;;;;5088566;27;36259;-56
2022/06/17 01:25:34;;;;;;;;;;;14.90;99.90;;;;;;5086827;27;39196;-56
2022/06/17 01:28:03;;;;;;;;;;;14.90;99.90;;;;;;5088572;28;37700;-56
2022/06/17 01:30:34;;;;;;;;;;;14.90;99.90;;;;;;5089117;27;37022;-56
2022/06/17 01:33:03;;;;;;;;;;;14.90;99.90;;;;;;5089668;27;36764;-56
2022/06/17 01:35:32;;;;;;;;;;;15.00;99.90;;;;;;5088533;28;36503;-56
2022/06/17 01:37:59;;;;;;;;;;;15.00;99.90;;;;;;5089023;27;38593;-56
2022/06/17 01:40:29;;;;;;;;;;;15.00;99.90;;;;;;5089268;27;36629;-56
2022/06/17 01:42:58;;;;;;;;;;;15.00;99.90;;;;;;5088744;27;36479;-56
2022/06/17 01:45:25;;;;;;;;;;;14.90;99.90;;;;;;5089285;28;37487;-55
2022/06/17 01:47:53;;;;;;;;;;;14.90;99.90;;;;;;5087255;27;39347;-56
2022/06/17 01:50:21;;;;;;;;;;;14.90;99.90;;;;;;5089497;27;36217;-56
2022/06/17 01:52:52;;;;;;;;;;;14.80;99.90;;;;;;5088928;27;36514;-56
2022/06/17 01:55:21;;;;;;;;;;;14.80;99.90;;;;;;5088047;28;38307;-56
2022/06/17 01:57:52;;;;;;;;;;;14.80;99.90;;;;;;5088103;27;38346;-56
2022/06/17 02:00:21;;;;;;;;;;;14.80;99.90;;;;;;5087657;27;37272;-56
2022/06/17 02:02:51;;;;;;;;;;;14.80;99.90;;;;;;5087266;27;36378;-56
2022/06/17 02:05:19;;;;;;;;;;;14.70;99.90;;;;;;5088738;27;36493;-56
2022/06/17 02:07:52;;;;;;;;;;;14.70;99.90;;;;;;5089128;27;36284;-56
2022/06/17 02:10:19;;;;;;;;;;;14.70;99.90;;;;;;5088324;27;37771;-56
2022/06/17 02:12:47;;;;;;;;;;;14.70;99.90;;;;;;5088617;27;37020;-56
2022/06/17 02:15:16;;;;;;;;;;;14.70;99.90;;;;;;5088106;27;38256;-56
2022/06/17 02:17:44;;;;;;;;;;;14.70;99.90;;;;;;5086489;27;37353;-56
2022/06/17 02:20:12;;;;;;;;;;;14.70;99.90;;;;;;5087096;27;34928;-56
2022/06/17 02:22:39;;;;;;;;;;;14.70;99.90;;;;;;5087718;27;36640;-56
2022/06/17 02:25:09;;;;;;;;;;;14.70;99.90;;;;;;5086754;27;36464;-50
2022/06/17 02:27:36;;;;;;;;;;;14.80;99.90;;;;;;5087111;27;38318;-48
2022/06/17 02:30:04;;;;;;;;;;;14.80;99.90;;;;;;5086682;27;36971;-46
2022/06/17 02:32:32;;;;;;;;;;;14.80;99.90;;;;;;5088371;27;38851;-46
2022/06/17 02:35:01;;;;;;;;;;;14.90;99.90;;;;;;5087849;27;36578;-47
2022/06/17 02:37:29;;;;;;;;;;;14.90;99.90;;;;;;5087925;27;36573;-45
2022/06/17 02:39:57;;;;;;;;;;;14.90;99.90;;;;;;5087903;27;37528;-46
2022/06/17 02:42:26;;;;;;;;;;;14.80;99.90;;;;;;5087999;27;37359;-45
2022/06/17 02:44:54;;;;;;;;;;;14.90;99.90;;;;;;5088312;28;37466;-46
2022/06/17 02:47:21;;;;;;;;;;;14.80;99.90;;;;;;5087018;27;38165;-46
2022/06/17 02:49:51;;;;;;;;;;;14.70;99.90;;;;;;5087065;28;38772;-46
2022/06/17 02:52:20;;;;;;;;;;;14.70;99.90;;;;;;5087448;27;35894;-46
2022/06/17 02:54:49;;;;;;;;;;;14.70;99.90;;;;;;5087391;27;38482;-47
2022/06/17 02:57:19;;;;;;;;;;;14.70;99.90;;;;;;5087062;27;36799;-48
2022/06/17 02:59:50;;;;;;;;;;;14.70;99.90;;;;;;5086678;27;37032;-46
2022/06/17 03:02:19;;;;;;;;;;;14.70;99.90;;;;;;5087194;27;36231;-46
2022/06/17 03:04:47;;;;;;;;;;;14.70;99.90;;;;;;5087076;27;37811;-46
2022/06/17 03:07:16;;;;;;;;;;;14.70;99.90;;;;;;5087805;28;38595;-48
2022/06/17 03:09:44;;;;;;;;;;;14.70;99.90;;;;;;5086917;27;37724;-45
2022/06/17 03:12:12;;;;;;;;;;;14.70;99.90;;;;;;5087170;28;37019;-46
2022/06/17 03:14:41;;;;;;;;;;;14.70;99.90;;;;;;5086829;27;38742;-55
2022/06/17 03:17:12;;;;;;;;;;;14.60;99.90;;;;;;5087774;27;38720;-55
2022/06/17 03:19:40;;;;;;;;;;;14.60;99.90;;;;;;5086498;27;37412;-56
2022/06/17 03:22:08;;;;;;;;;;;14.60;99.90;;;;;;5087676;27;35208;-55
2022/06/17 03:24:42;;;;;;;;;;;14.70;99.90;;;;;;5087405;27;36594;-56
2022/06/17 03:27:11;;;;;;;;;;;14.70;99.90;;;;;;5087846;27;37382;-56
2022/06/17 03:29:40;;;;;;;;;;;14.70;99.90;;;;;;5087670;27;37634;-55
2022/06/17 03:32:12;;;;;;;;;;;14.70;99.90;;;;;;5086773;27;35817;-56
2022/06/17 03:34:43;;;;;;;;;;;14.80;99.90;;;;;;5086375;27;38204;-56
2022/06/17 03:37:14;;;;;;;;;;;14.90;99.90;;;;;;5085925;27;38830;-56
2022/06/17 03:39:45;;;;;;;;;;;14.90;99.90;;;;;;5087878;27;36696;-56
2022/06/17 03:42:14;;;;;;;;;;;14.90;99.90;;;;;;5090560;27;36524;-56
2022/06/17 03:44:44;;;;;;;;;;;15.00;99.90;;;;;;5089909;27;37084;-56
2022/06/17 03:47:14;;;;;;;;;;;15.00;99.90;;;;;;5088117;27;37887;-55
2022/06/17 03:49:43;;;;;;;;;;;15.00;99.90;;;;;;5090112;27;36740;-56
2022/06/17 03:52:14;;;;;;;;;;;15.00;99.90;;;;;;5088710;27;35225;-56
2022/06/17 03:54:42;;;;;;;;;;;15.00;99.90;;;;;;5089359;27;37309;-56
2022/06/17 03:57:10;;;;;;;;;;;15.00;99.90;;;;;;5089410;27;37278;-55
2022/06/17 03:59:37;;;;;;;;;;;15.00;99.90;;;;;;5089505;27;38073;-56
2022/06/17 04:02:06;;;;;;;;;;;15.10;99.90;;;;;;5089048;27;36515;-56
2022/06/17 04:04:35;;;;;;;;;;;15.10;99.90;;;;;;5089543;28;37908;-55
2022/06/17 04:07:02;;;;;;;;;;;15.20;99.90;;;;;;5090838;27;38296;-56
2022/06/17 04:09:30;;;;;;;;;;;15.20;99.90;;;;;;5090693;27;36127;-56
2022/06/17 04:12:00;;;;;;;;;;;15.30;99.90;;;;;;5090049;27;39095;-56
2022/06/17 04:14:29;;;;;;;;;;;15.40;99.90;;;;;;5089355;27;36917;-56
2022/06/17 04:17:00;;;;;;;;;;;15.50;99.90;;;;;;5090290;27;39291;-56
2022/06/17 04:19:31;;;;;;;;;;;15.60;99.90;;;;;;5089505;27;37949;-56
2022/06/17 04:22:00;;;;;;;;;;;15.70;99.90;;;;;;5089277;27;35171;-56
2022/06/17 04:24:28;;;;;;;;;;;15.80;99.90;;;;;;5089045;27;39072;-56
2022/06/17 04:26:57;;;;;;;;;;;15.80;99.90;;;;;;5089003;27;37288;-56
2022/06/17 04:29:30;;;;;;;;;;;15.80;99.90;;;;;;5088352;27;36627;-56
2022/06/17 04:32:02;;;;;;;;;;;15.80;99.90;;;;;;5088917;28;35759;-56
2022/06/17 04:34:29;;;;;;;;;;;15.80;99.90;;;;;;5088716;27;36503;-56
2022/06/17 04:37:00;;;;;;;;;;;15.90;99.90;;;;;;5088924;27;39016;-55
2022/06/17 04:39:29;;;;;;;;;;;15.90;99.90;;;;;;5088022;27;37282;-56
2022/06/17 04:41:58;;;;;;;;;;;15.90;99.90;;;;;;5088938;27;36160;-55
2022/06/17 04:44:26;;;;;;;;;;;15.90;99.90;;;;;;5090057;27;39372;-55
2022/06/17 04:46:55;;;;;;;;;;;16.00;99.90;;;;;;5088859;27;38442;-56
2022/06/17 04:49:24;;;;;;;;;;;16.00;99.90;;;;;;5090027;27;36845;-56
2022/06/17 04:51:54;;;;;;;;;;;16.00;99.90;;;;;;5089311;28;37227;-56
2022/06/17 04:54:24;;;;;;;;;;;16.00;99.90;;;;;;5088252;27;37820;-55
2022/06/17 04:56:52;;;;;;;;;;;16.00;99.90;;;;;;5088690;27;39429;-56
2022/06/17 04:59:25;;;;;;;;;;;16.00;99.90;;;;;;5088357;28;36747;-55
2022/06/17 05:01:53;;;;;;;;;;;16.10;99.90;;;;;;5089413;27;37566;-56
2022/06/17 05:04:20;;;;;;;;;;;16.10;99.90;;;;;;5088398;27;38357;-56
2022/06/17 05:06:47;;;;;;;;;;;16.20;99.90;;;;;;5088957;27;42045;-56
2022/06/17 05:09:20;;;;;;;;;;;16.20;99.90;;;;;;5087833;27;37213;-56
2022/06/17 05:11:48;;;;;;;;;;;16.20;99.90;;;;;;5088996;27;36875;-56
2022/06/17 05:14:19;;;;;;;;;;;16.30;99.90;;;;;;5086901;27;40471;-56
2022/06/17 05:16:46;;;;;;;;;;;16.30;99.90;;;;;;5087280;27;38905;-56
2022/06/17 05:19:15;;;;;;;;;;;16.30;99.90;;;;;;5088014;27;38269;-55
2022/06/17 05:21:42;;;;;;;;;;;16.30;99.90;;;;;;5088765;27;36534;-55
2022/06/17 05:24:10;;;;;;;;;;;16.40;99.90;;;;;;5088963;27;38382;-55
2022/06/17 05:26:37;;;;;;;;;;;16.40;99.90;;;;;;5088706;27;38848;-55
2022/06/17 05:29:07;;;;;;;;;;;16.40;99.90;;;;;;5089244;27;38141;-56
2022/06/17 05:31:35;;;;;;;;;;;16.40;99.90;;;;;;5088448;27;35267;-55
2022/06/17 05:34:02;;;;;;;;;;;16.40;99.90;;;;;;5088278;27;38280;-54
2022/06/17 05:36:31;;;;;;;;;;;16.40;99.90;;;;;;5087844;27;38162;-55
2022/06/17 05:38:58;;;;;;;;;;;16.40;99.90;;;;;;5088959;28;37398;-56
2022/06/17 05:41:25;;;;;;;;;;;16.50;99.90;;;;;;5088713;27;37015;-55
2022/06/17 05:43:52;;;;;;;;;;;16.50;99.90;;;;;;5088978;27;38271;-56
2022/06/17 05:46:19;;;;;;;;;;;16.50;99.90;;;;;;5088587;27;38616;-55
2022/06/17 05:48:46;;;;;;;;;;;16.50;99.90;;;;;;5086634;27;36972;-55
2022/06/17 05:51:13;;;;;;;;;;;16.60;99.90;;;;;;5087491;27;37597;-56
2022/06/17 05:53:42;;;;;;;;;;;16.60;99.90;;;;;;5087197;27;36546;-56
2022/06/17 05:56:09;;;;;;;;;;;16.60;99.90;;;;;;5087559;27;35994;-55
2022/06/17 05:58:36;;;;;;;;;;;16.70;99.90;;;;;;5088250;27;37942;-55
2022/06/17 06:01:03;;;;;;;;;;;16.70;99.90;;;;;;5087295;27;35305;-55
2022/06/17 06:03:30;;;;;;;;;;;16.80;99.90;;;;;;5087602;27;37820;-56
2022/06/17 06:05:57;;;;;;;;;;;16.80;99.90;;;;;;5086681;27;36393;-56
2022/06/17 06:08:24;;;;;;;;;;;16.90;99.90;;;;;;5087423;27;37714;-56
2022/06/17 06:10:52;;;;;;;;;;;16.90;99.90;;;;;;5088054;27;38687;-55
2022/06/17 06:13:22;;;;;;;;;;;16.90;99.90;;;;;;5088803;27;36484;-55
2022/06/17 06:15:50;;;;;;;;;;;17.00;99.90;;;;;;5081911;27;38578;-55
2022/06/17 06:18:20;;;;;;;;;;;17.00;99.90;;;;;;5085929;27;37473;-55
2022/06/17 06:20:47;;;;;;;;;;;17.10;99.90;;;;;;5087728;27;36963;-55
2022/06/17 06:23:14;;;;;;;;;;;17.10;99.90;;;;;;5086329;27;38038;-56
2022/06/17 06:25:41;;;;;;;;;;;17.10;99.90;;;;;;5088014;27;36593;-56
2022/06/17 06:28:11;;;;;;;;;;;17.10;99.90;;;;;;5086741;27;37807;-55
2022/06/17 06:30:38;;;;;;;;;;;17.10;99.90;;;;;;5087504;27;35735;-55
2022/06/17 06:33:05;;;;;;;;;;;17.10;99.90;;;;;;5086584;27;38456;-56
2022/06/17 06:35:36;;;;;;;;;;;17.20;99.90;;;;;;5084889;28;37407;-55
2022/06/17 06:38:03;;;;;;;;;;;17.20;99.90;;;;;;5086718;27;38119;-55
2022/06/17 06:40:30;;;;;;;;;;;17.30;99.90;;;;;;5087268;27;37451;-55
2022/06/17 06:42:58;;;;;;;;;;;17.40;99.90;;;;;;5084990;27;38256;-55
2022/06/17 06:45:27;;;;;;;;;;;17.40;99.90;;;;;;5085096;27;37804;-55
2022/06/17 06:47:56;;;;;;;;;;;17.50;99.90;;;;;;5085869;27;37790;-55
2022/06/17 06:50:24;;;;;;;;;;;17.60;99.90;;;;;;5085414;27;36051;-56
2022/06/17 06:52:51;;;;;;;;;;;17.70;99.90;;;;;;5086119;27;38041;-55
2022/06/17 06:55:18;;;;;;;;;;;17.80;99.90;;;;;;5086278;27;37940;-55
2022/06/17 06:57:46;;;;;;;;;;;17.80;99.90;;;;;;5086444;27;37129;-55
2022/06/17 07:00:15;;;;;;;;;;;17.90;98.90;;;;;;5085200;27;36605;-55
2022/06/17 07:02:43;;;;;;;;;;;18.00;99.50;;;;;;5087238;27;40362;-55
2022/06/17 07:05:10;;;;;;;;;;;18.10;99.10;;;;;;5086294;27;39425;-55
2022/06/17 07:07:37;;;;;;;;;;;18.20;99.40;;;;;;5085443;27;37099;-55
2022/06/17 07:10:05;;;;;;;;;;;18.30;99.30;;;;;;5086355;28;36728;-55
2022/06/17 07:12:32;;;;;;;;;;;18.30;98.40;;;;;;5086609;27;37963;-55
2022/06/17 07:14:59;;;;;;;;;;;18.30;99.00;;;;;;5086854;27;37675;-55
2022/06/17 07:17:26;;;;;;;;;;;18.30;98.90;;;;;;5087574;27;38408;-55
2022/06/17 07:19:57;;;;;;;;;;;18.30;98.90;;;;;;5085650;27;36831;-46
2022/06/17 07:22:24;;;;;;;;;;;18.30;98.80;;;;;;5083599;27;37933;-46
2022/06/17 07:24:51;;;;;;;;;;;18.40;99.00;;;;;;5086018;27;39288;-44
2022/06/17 07:27:19;;;;;;;;;;;18.40;98.80;;;;;;5084985;27;36159;-45
2022/06/17 07:29:46;;;;;;;;;;;18.40;98.80;;;;;;5087555;27;36756;-45
2022/06/17 07:32:13;;;;;;;;;;;18.50;99.00;;;;;;5087366;27;38601;-46
2022/06/17 07:34:40;;;;;;;;;;;18.50;99.10;;;;;;5086419;27;38601;-45
2022/06/17 07:40:03;;;;;;;;;;;18.60;98.40;;;;;;5085527;28;38582;-48
2022/06/17 07:42:38;;;;;;;;;;;18.70;99.00;;;;;;5083940;27;39432;-47
2022/06/17 07:45:09;;;;;;;;;;;18.70;98.70;;;;;;5084569;27;37150;-48
2022/06/17 07:47:36;;;;;;;;;;;18.80;99.30;;;;;;5086475;27;37431;-46
2022/06/17 07:50:05;;;;;;;;;;;18.90;98.80;;;;;;5086985;27;37818;-45
2022/06/17 07:52:33;;;;;;;;;;;18.90;99.00;;;;;;5085756;27;37879;-46
2022/06/17 07:55:00;;;;;;;;;;;19.00;98.30;;;;;;5087419;27;40370;-46
2022/06/17 07:57:27;;;;;;;;;;;19.10;98.80;;;;;;5085286;27;35943;-49
2022/06/17 07:59:54;;;;;;;;;;;19.20;99.00;;;;;;5087210;27;37099;-45
2022/06/17 08:02:21;;;;;;;;;;;19.20;99.10;;;;;;5087715;27;36542;-49
2022/06/17 08:04:48;;;;;;;;;;;19.30;98.40;;;;;;5085639;27;38029;-47
2022/06/17 08:07:16;;;;;;;;;;;19.30;98.10;;;;;;5087686;27;37884;-47
2022/06/17 08:09:44;;;;;;;;;;;19.40;98.60;;;;;;5087531;27;36492;-45
2022/06/17 08:12:13;;;;;;;;;;;19.50;98.70;;;;;;5085998;27;38607;-49
2022/06/17 08:14:43;;;;;;;;;;;19.50;98.20;;;;;;5086490;27;37431;-46
2022/06/17 08:17:12;;;;;;;;;;;19.50;98.10;;;;;;5085324;27;38547;-46
2022/06/17 08:19:39;;;;;;;;;;;19.60;97.70;;;;;;5084353;27;37646;-47
2022/06/17 08:22:06;;;;;;;;;;;19.70;98.10;;;;;;5084841;27;37979;-46
2022/06/17 08:24:33;;;;;;;;;;;19.80;98.40;;;;;;5087140;27;37837;-47
2022/06/17 08:27:01;;;;;;;;;;;20.00;97.10;;;;;;5089079;27;38701;-48
2022/06/17 08:29:29;;;;;;;;;;;20.30;96.30;;;;;;5090654;27;35284;-47
2022/06/17 08:32:44;;;;;;;;;;;20.40;96.70;;;;;;5091770;27;37129;-48
2022/06/17 08:34:43;;;;;;;;;;;20.50;96.10;;;;;;5090490;28;37276;-47
2022/06/17 08:37:11;;;;;;;;;;;20.60;97.10;;;;;;5089024;27;37124;-46
2022/06/17 08:39:38;;;;;;;;;;;20.60;96.40;;;;;;5089216;27;35276;-46
2022/06/17 08:42:10;;;;;;;;;;;20.60;95.90;;;;;;5086250;27;37948;-47
2022/06/17 08:44:43;;;;;;;;;;;20.60;95.70;;;;;;5087472;27;36628;-47
2022/06/17 08:47:30;;;;;;;;;;;20.60;96.20;;;;;;5088264;27;37786;-46
2022/06/17 08:50:16;;;;;;;;;;;20.50;95.80;;;;;;5089537;27;36607;-48
2022/06/17 08:52:50;;;;;;;;;;;20.50;95.50;;;;;;5089694;27;37644;-56
2022/06/17 08:55:21;;;;;;;;;;;20.50;95.70;;;;;;5089791;27;38143;-55
2022/06/17 08:57:54;;;;;;;;;;;20.50;96.10;;;;;;5089244;27;36926;-47
2022/06/17 09:00:25;;;;;;;;;;;20.50;95.90;;;;;;5088638;27;36173;-46
2022/06/17 09:03:09;;;;;;;;;;;20.50;96.30;;;;;;5089322;27;37800;-46
2022/06/17 09:05:44;;;;;;;;;;;20.40;96.00;;;;;;5088965;27;39267;-47
2022/06/17 09:08:38;;;;;;;;;;;20.50;96.10;;;;;;5088950;27;37848;-54
2022/06/17 09:11:12;;;;;;;;;;;20.50;97.00;;;;;;5063305;27;37873;-52
2022/06/17 09:13:45;;;;;;;;;;;20.50;97.20;;;;;;5086942;27;38620;-55
2022/06/17 09:16:16;;;;;;;;;;;20.50;97.40;;;;;;5088962;27;38992;-55
2022/06/17 09:18:44;;;;;;;;;;;20.60;95.70;;;;;;5087619;27;36065;-54
2022/06/17 09:21:14;;;;;;;;;;;20.60;96.10;;;;;;5086839;27;35221;-54
2022/06/17 09:23:42;;;;;;;;;;;20.60;96.10;;;;;;5086368;27;37978;-55
2022/06/17 09:26:11;;;;;;;;;;;20.60;96.50;;;;;;5087920;27;37896;-47
2022/06/17 09:28:39;;;;;;;;;;;20.70;96.00;;;;;;5084514;27;39964;-46
2022/06/17 09:31:11;;;;;;;;;;;20.70;96.80;;;;;;5087540;28;36916;-46
2022/06/17 09:33:40;;;;;;;;;;;20.80;96.00;;;;;;5087377;27;39042;-45
2022/06/17 09:36:10;;;;;;;;;;;21.00;96.50;;;;;;5086116;27;38719;-46
2022/06/17 09:38:40;;;;;;;;;;;21.20;96.60;;;;;;5085639;27;39217;-48
2022/06/17 09:41:12;;;;;;;;;;;21.50;95.90;;;;;;5087698;27;36445;-45
2022/06/17 09:43:44;;;;;;;;;;;21.70;95.30;;;;;;5087272;27;38753;-45
2022/06/17 09:46:17;;;;;;;;;;;21.90;94.30;;;;;;5086137;28;38151;-48
2022/06/17 09:48:46;;;;;;;;;;;22.00;93.50;;;;;;5086121;27;37315;-56
2022/06/17 09:51:15;;;;;;;;;;;22.00;92.60;;;;;;5087501;27;35717;-57
2022/06/17 09:53:46;;;;;;;;;;;21.90;93.10;;;;;;5085899;27;36598;-56
2022/06/17 09:56:16;;;;;;;;;;;21.90;93.90;;;;;;5088814;27;38092;-56
2022/06/17 09:58:46;;;;;;;;;;;21.90;92.80;;;;;;5086355;28;35932;-56
2022/06/17 10:01:14;;;;;;;;;;;21.70;93.20;;;;;;5087411;27;37098;-56
2022/06/17 10:03:43;;;;;;;;;;;21.70;93.20;;;;;;5089220;28;30607;-57
2022/06/17 10:06:17;;;;;;;;;;;21.70;93.50;;;;;;5086212;27;39028;-56
2022/06/17 10:08:50;;;;;;;;;;;21.70;94.40;;;;;;5086195;28;39325;-56
2022/06/17 10:11:21;;;;;;;;;;;21.70;94.10;;;;;;5084298;27;36640;-57
2022/06/17 10:13:53;;;;;;;;;;;21.70;94.80;;;;;;5086017;27;38006;-56
2022/06/17 10:19:25;;;;;;;;;;;21.60;93.80;;;;;;5072518;27;38405;-56
2022/06/17 10:21:59;;;;;;;;;;;21.60;94.30;;;;;;5088038;27;36395;-56
2022/06/17 10:24:30;;;;;;;;;;;21.60;94.50;;;;;;5087807;27;38576;-56
2022/06/17 10:27:01;;;;;;;;;;;21.50;94.70;;;;;;5087014;28;36615;-56
2022/06/17 10:29:42;;;;;;;;;;;21.50;93.20;;;;;;5088112;27;35878;-57
2022/06/17 10:32:10;;;;;;;;;;;21.50;94.00;;;;;;5087927;27;36190;-56
2022/06/17 10:34:41;;;;;;;;;;;21.60;95.20;;;;;;5087972;27;36748;-56
2022/06/17 10:37:09;;;;;;;;;;;21.60;95.70;;;;;;5088150;27;36612;-56
2022/06/17 10:39:37;;;;;;;;;;;21.60;95.10;;;;;;5091417;27;36960;-56
2022/06/17 10:42:06;;;;;;;;;;;21.70;94.90;;;;;;5091031;27;38029;-56
2022/06/17 10:44:33;;;;;;;;;;;21.70;95.40;;;;;;5091930;27;37832;-56
2022/06/17 10:47:02;;;;;;;;;;;21.80;95.70;;;;;;5089876;27;38564;-56
2022/06/17 10:49:34;;;;;;;;;;;21.90;94.70;;;;;;5090240;27;37144;-56
2022/06/17 10:52:02;;;;;;;;;;;22.10;95.20;;;;;;5089961;27;37629;-56
2022/06/17 10:54:29;;;;;;;;;;;22.10;95.70;;;;;;5090731;27;37692;-56
2022/06/17 10:57:00;;;;;;;;;;;22.20;94.70;;;;;;5090386;27;36508;-56
2022/06/17 10:59:32;;;;;;;;;;;22.20;94.30;;;;;;5089229;28;36651;-57
2022/06/17 11:01:59;;;;;;;;;;;22.20;94.20;;;;;;5088981;27;35969;-56
2022/06/17 11:04:26;;;;;;;;;;;22.30;94.30;;;;;;5089496;27;38391;-57
2022/06/17 11:06:56;;;;;;;;;;;22.40;95.30;;;;;;5089914;27;38088;-56
2022/06/17 11:09:28;;;;;;;;;;;22.40;94.90;;;;;;5090700;27;39196;-56
2022/06/17 11:12:05;;;;;;;;;;;22.50;94.70;;;;;;5091541;27;36929;-56
2022/06/17 11:14:38;;;;;;;;;;;22.60;94.90;;;;;;5090243;27;37904;-57
2022/06/17 11:17:13;;;;;;;;;;;22.70;94.20;;;;;;5090143;27;36646;-56
2022/06/17 11:19:40;;;;;;;;;;;22.80;94.30;;;;;;5089893;27;37982;-57
2022/06/17 11:22:17;;;;;;;;;;;22.80;93.80;;;;;;5090286;27;36864;-57
2022/06/17 11:24:51;;;;;;;;;;;23.00;94.30;;;;;;5090340;28;37934;-56
2022/06/17 11:27:22;;;;;;;;;;;23.20;94.00;;;;;;5089851;27;37903;-57
2022/06/17 11:29:51;;;;;;;;;;;23.20;94.00;;;;;;5090247;27;36302;-57
2022/06/17 11:32:27;;;;;;;;;;;23.20;93.70;;;;;;5090219;27;35278;-57
2022/06/17 11:34:55;;;;;;;;;;;23.20;92.90;;;;;;5089794;27;38406;-57
2022/06/17 11:37:27;;;;;;;;;;;23.30;93.50;;;;;;5089711;27;38484;-56
2022/06/17 11:40:08;;;;;;;;;;;23.30;93.30;;;;;;5090094;28;36637;-57
2022/06/17 11:42:35;;;;;;;;;;;23.40;93.00;;;;;;5090084;27;38368;-57
2022/06/17 11:45:04;;;;;;;;;;;23.40;93.50;;;;;;5090233;27;37935;-57
2022/06/17 11:47:33;;;;;;;;;;;23.40;93.10;;;;;;5090301;27;37914;-56
2022/06/17 11:50:11;;;;;;;;;;;23.50;92.00;;;;;;5090251;27;36838;-57
2022/06/17 11:52:39;;;;;;;;;;;23.50;91.70;;;;;;5090180;27;36818;-57
2022/06/17 11:55:07;;;;;;;;;;;23.50;90.90;;;;;;5090208;27;38825;-57
2022/06/17 11:57:35;;;;;;;;;;;23.50;90.50;;;;;;5089712;27;38901;-57
2022/06/17 12:00:04;;;;;;;;;;;23.60;90.40;;;;;;5089600;28;37446;-56
2022/06/17 12:02:32;;;;;;;;;;;23.80;91.40;;;;;;5092317;28;36757;-57
2022/06/17 12:05:05;;;;;;;;;;;24.00;90.90;;;;;;5093083;27;37856;-56
2022/06/17 12:07:39;;;;;;;;;;;24.20;89.60;;;;;;5093025;27;37564;-57
2022/06/17 12:10:13;;;;;;;;;;;24.20;87.20;;;;;;5093120;27;37811;-57
2022/06/17 12:12:40;;;;;;;;;;;24.30;87.80;;;;;;5092757;27;37293;-57
2022/06/17 12:15:12;;;;;;;;;;;24.40;84.70;;;;;;5092683;27;36504;-57
2022/06/17 12:17:40;;;;;;;;;;;24.40;84.90;;;;;;5093295;27;38725;-57
2022/06/17 12:20:13;;;;;;;;;;;24.60;88.80;;;;;;5093363;27;38522;-57
2022/06/17 12:22:42;;;;;;;;;;;24.60;87.10;;;;;;5092737;27;36307;-57
2022/06/17 12:25:15;;;;;;;;;;;24.60;83.00;;;;;;5093951;28;37874;-57
2022/06/17 12:27:47;;;;;;;;;;;24.70;88.00;;;;;;5093626;27;39065;-57
2022/06/17 12:30:19;;;;;;;;;;;24.70;86.00;;;;;;5092775;28;38311;-57
2022/06/17 12:32:48;;;;;;;;;;;24.80;85.90;;;;;;5093260;27;37126;-57
2022/06/17 12:35:18;;;;;;;;;;;24.80;86.60;;;;;;5092910;27;38347;-57
2022/06/17 12:37:48;;;;;;;;;;;24.90;84.80;;;;;;5093366;27;37489;-57
2022/06/17 12:40:21;;;;;;;;;;;24.90;82.10;;;;;;5093050;27;37943;-57
2022/06/17 12:42:51;;;;;;;;;;;24.80;85.10;;;;;;5093545;27;36998;-57
2022/06/17 12:45:20;;;;;;;;;;;24.80;86.00;;;;;;5093431;27;37987;-49
2022/06/17 12:47:55;;;;;;;;;;;24.80;86.10;;;;;;5092629;27;37897;-56
2022/06/17 12:53:17;;;;;;;;;;;24.70;87.70;;;;;;5093388;28;39005;-57
2022/06/17 12:55:56;;;;;;;;;;;24.70;86.20;;;;;;5093552;28;39573;-57
2022/06/17 12:58:29;;;;;;;;;;;24.70;84.60;;;;;;5092972;27;38058;-57
2022/06/17 13:00:58;;;;;;;;;;;24.70;83.40;;;;;;5093499;27;38164;-57
2022/06/17 13:03:34;;;;;;;;;;;24.70;82.60;;;;;;5091887;27;36948;-57
2022/06/17 13:06:08;;;;;;;;;;;24.60;85.00;;;;;;5092890;27;37392;-57
2022/06/17 13:08:39;;;;;;;;;;;24.50;83.00;;;;;;5093278;27;38871;-57
2022/06/17 13:11:14;;;;;;;;;;;24.50;78.40;;;;;;5092601;28;37090;-57
2022/06/17 13:13:50;;;;;;;;;;;24.40;81.40;;;;;;5092268;27;35378;-57
2022/06/17 13:16:20;;;;;;;;;;;24.40;81.40;;;;;;5093007;27;36565;-57
2022/06/17 13:18:49;;;;;;;;;;;24.20;79.60;;;;;;5091183;27;38678;-57
2022/06/17 13:21:20;;;;;;;;;;;24.20;79.80;;;;;;5092310;27;36739;-57
2022/06/17 13:23:51;;;;;;;;;;;24.20;79.00;;;;;;5093222;27;36820;-57
2022/06/17 13:26:21;;;;;;;;;;;24.10;80.20;;;;;;5093234;27;38118;-56
2022/06/17 13:28:52;;;;;;;;;;;24.10;83.10;;;;;;5093658;27;37799;-57
2022/06/17 13:31:21;;;;;;;;;;;24.00;82.60;;;;;;5093535;27;38161;-57
2022/06/17 13:33:50;;;;;;;;;;;24.00;81.80;;;;;;5093644;27;36668;-57
2022/06/17 13:36:20;;;;;;;;;;;24.00;81.30;;;;;;5093930;27;38458;-57
2022/06/17 13:38:53;;;;;;;;;;;24.10;81.60;;;;;;5092413;27;38871;-56
2022/06/17 13:41:24;;;;;;;;;;;24.10;84.80;;;;;;5092555;27;37138;-57
2022/06/17 13:43:53;;;;;;;;;;;24.10;83.40;;;;;;5092052;27;36419;-57
2022/06/17 13:46:26;;;;;;;;;;;24.20;82.80;;;;;;5092807;27;37408;-57
2022/06/17 13:48:55;;;;;;;;;;;24.20;84.40;;;;;;5092188;27;37783;-57
2022/06/17 13:51:27;;;;;;;;;;;24.20;83.70;;;;;;5093173;27;38178;-57
2022/06/17 13:54:02;;;;;;;;;;;24.30;85.60;;;;;;5092831;27;36513;-57
2022/06/17 13:56:37;;;;;;;;;;;24.30;85.10;;;;;;5091488;27;38387;-57
2022/06/17 13:59:05;;;;;;;;;;;24.40;85.00;;;;;;5091469;28;39083;-57
2022/06/17 14:01:40;;;;;;;;;;;24.40;82.40;;;;;;5091663;27;38068;-57
2022/06/17 14:04:10;;;;;;;;;;;24.50;83.40;;;;;;5092590;27;36670;-57
2022/06/17 14:06:56;;;;;;;;;;;24.50;82.00;;;;;;5092308;28;37652;-57
2022/06/17 14:09:25;;;;;;;;;;;24.40;81.60;;;;;;5091696;27;38656;-57
2022/06/17 14:11:56;;;;;;;;;;;24.40;82.40;;;;;;5091783;27;37141;-57
2022/06/17 14:14:39;;;;;;;;;;;24.40;80.70;;;;;;5091685;27;36737;-57
2022/06/17 14:17:17;;;;;;;;;;;24.40;82.50;;;;;;5092178;27;39267;-57
2022/06/17 14:19:47;;;;;;;;;;;24.40;85.30;;;;;;5091503;27;38429;-57
2022/06/17 14:22:17;;;;;;;;;;;24.40;84.20;;;;;;5092221;28;35879;-57
2022/06/17 14:24:58;;;;;;;;;;;24.50;84.40;;;;;;5091138;27;36957;-57
2022/06/17 14:27:44;;;;;;;;;;;24.50;83.70;;;;;;5091273;28;37772;-57
2022/06/17 14:30:31;;;;;;;;;;;24.50;83.10;;;;;;5091096;27;38828;-57
2022/06/17 14:32:58;;;;;;;;;;;24.60;81.70;;;;;;5091489;27;38041;-57
2022/06/17 14:35:28;;;;;;;;;;;24.50;80.40;;;;;;5092208;27;36223;-57
2022/06/17 14:38:06;;;;;;;;;;;24.50;80.10;;;;;;5091503;27;38419;-57
2022/06/17 14:42:01;;;;;;;;;;;24.60;80.00;;;;;;5090945;27;38276;-57